createdAt,value
2018-07-04T00:02:27.455Z,100995.64
2018-07-04T00:05:12.356Z,100998.47
2018-07-04T00:07:57.436Z,100994.91
2018-07-04T00:10:42.386Z,101001.42
2018-07-04T00:13:27.528Z,100998.46
2018-07-04T00:16:12.517Z,100999.23
2018-07-04T00:18:57.642Z,100999.84
2018-07-04T00:21:42.510Z,101000.96
2018-07-04T00:24:27.770Z,100994.95
2018-07-04T00:27:12.693Z,101004.16
2018-07-04T00:29:57.934Z,101007.95
2018-07-04T00:32:42.757Z,101013.94
2018-07-04T00:35:27.826Z,101016.89
2018-07-04T00:38:12.776Z,101012.71
2018-07-04T00:40:57.773Z,101011.01
2018-07-04T00:43:42.824Z,101016.65
2018-07-04T00:46:27.877Z,101017.38
2018-07-04T00:49:12.797Z,101014.94
2018-07-04T00:51:57.817Z,101017.52
2018-07-04T00:54:42.868Z,101012.98
2018-07-04T00:57:27.930Z,101021.67
2018-07-04T01:00:12.873Z,101015.19
2018-07-04T01:02:57.825Z,101018.12
2018-07-04T01:05:42.628Z,101024.16
2018-07-04T01:08:27.575Z,101030.63
2018-07-04T01:11:12.446Z,101030.87
2018-07-04T01:13:57.481Z,101035.51
2018-07-04T01:16:42.295Z,101039.44
2018-07-04T01:19:27.780Z,101038.81
2018-07-04T01:22:12.789Z,101033.67
2018-07-04T01:24:57.801Z,101034.91
2018-07-04T01:27:42.641Z,101038.83
2018-07-04T01:30:27.709Z,101031.47
2018-07-04T01:33:12.619Z,101036.63
2018-07-04T01:35:57.748Z,101033.30
2018-07-04T01:38:42.624Z,101036.23
2018-07-04T01:41:27.497Z,101032.05
2018-07-04T01:44:13.482Z,101032.29
2018-07-04T01:46:58.585Z,101042.34
2018-07-04T01:49:43.597Z,101034.00
2018-07-04T01:52:28.595Z,101036.57
2018-07-04T01:55:13.546Z,101037.28
2018-07-04T01:57:59.267Z,101040.73
2018-07-04T02:00:44.219Z,101038.36
2018-07-04T02:03:29.185Z,101038.20
2018-07-04T02:06:14.051Z,101033.93
2018-07-04T02:08:59.374Z,100916.09
2018-07-04T02:11:44.447Z,101034.28
2018-07-04T02:14:29.356Z,101039.27
2018-07-04T02:17:14.371Z,101032.66
2018-07-04T02:19:59.388Z,101039.63
2018-07-04T02:22:44.393Z,101036.22
2018-07-04T02:25:29.446Z,101034.13
2018-07-04T02:28:14.194Z,101035.23
2018-07-04T02:30:59.456Z,101032.27
2018-07-04T02:33:44.196Z,101030.20
2018-07-04T02:36:29.324Z,101037.88
2018-07-04T02:39:14.395Z,101027.23
2018-07-04T02:42:00.501Z,101030.04
2018-07-04T02:44:45.405Z,101038.11
2018-07-04T02:47:30.349Z,101032.84
2018-07-04T02:50:15.286Z,101020.50
2018-07-04T02:53:00.318Z,101024.15
2018-07-04T02:55:45.044Z,101025.48
2018-07-04T02:58:30.398Z,101026.11
2018-07-04T03:01:15.212Z,100835.39
2018-07-04T03:04:00.213Z,101026.70
2018-07-04T03:06:45.319Z,101016.42
2018-07-04T03:09:30.389Z,101019.23
2018-07-04T03:12:15.221Z,101028.28
2018-07-04T03:15:00.318Z,101021.68
2018-07-04T03:17:45.136Z,101015.44
2018-07-04T03:20:30.280Z,101011.91
2018-07-04T03:23:15.041Z,101015.83
2018-07-04T03:26:00.071Z,101012.63
2018-07-04T03:28:44.893Z,101016.66
2018-07-04T03:31:30.567Z,101008.23
2018-07-04T03:34:15.325Z,101012.16
2018-07-04T03:37:00.305Z,101007.13
2018-07-04T03:39:45.260Z,101010.22
2018-07-04T03:42:30.459Z,101014.49
2018-07-04T03:45:15.211Z,101022.44
2018-07-04T03:48:00.610Z,101014.85
2018-07-04T03:50:45.704Z,101018.77
2018-07-04T03:53:30.668Z,101014.14
2018-07-04T03:56:15.790Z,101006.47
2018-07-04T03:59:00.734Z,101011.34
2018-07-04T04:01:45.870Z,101005.36
2018-07-04T04:04:30.679Z,101002.08
2018-07-04T04:07:15.809Z,100997.05
2018-07-04T04:10:00.798Z,101000.50
2018-07-04T04:12:45.834Z,101001.21
2018-07-04T04:15:30.845Z,100998.80
2018-07-04T04:18:15.890Z,100990.61
2018-07-04T04:21:00.819Z,100995.00
2018-07-04T04:23:45.755Z,100993.18
2018-07-04T04:26:30.544Z,100993.89
2018-07-04T04:29:15.924Z,100994.64
2018-07-04T04:32:00.731Z,100990.48
2018-07-04T04:34:46.352Z,100994.28
2018-07-04T04:37:31.362Z,100990.02
2018-07-04T04:40:16.458Z,100996.50
2018-07-04T04:43:01.379Z,100988.82
2018-07-04T04:45:46.595Z,100993.09
2018-07-04T04:48:31.422Z,100990.64
2018-07-04T04:51:16.613Z,100986.04
2018-07-04T04:54:01.556Z,100981.28
2018-07-04T04:56:46.533Z,100987.14
2018-07-04T04:59:31.545Z,100988.36
2018-07-04T05:02:16.551Z,100988.51
2018-07-04T05:05:01.299Z,100990.09
2018-07-04T05:07:46.377Z,100998.80
2018-07-04T05:10:31.799Z,100987.27
2018-07-04T05:13:16.848Z,100995.26
2018-07-04T05:16:01.725Z,100990.11
2018-07-04T05:18:46.763Z,100999.16
2018-07-04T05:21:31.814Z,100992.66
2018-07-04T05:24:16.705Z,100983.74
2018-07-04T05:27:01.645Z,100982.03
2018-07-04T05:29:46.780Z,100973.58
2018-07-04T05:32:31.846Z,100973.20
2018-07-04T05:35:16.882Z,100861.12
2018-07-04T05:38:01.747Z,100973.45
2018-07-04T05:40:46.794Z,100980.16
2018-07-04T05:43:31.614Z,100976.27
2018-07-04T05:46:16.799Z,100975.89
2018-07-04T05:49:01.714Z,100968.65
2018-07-04T05:51:47.017Z,100969.10
2018-07-04T05:54:31.861Z,100968.24
2018-07-04T05:57:16.928Z,100969.95
2018-07-04T06:00:02.055Z,100964.21
2018-07-04T06:02:47.007Z,100968.87
2018-07-04T06:05:32.045Z,100963.92
2018-07-04T06:08:17.123Z,100970.16
2018-07-04T06:11:01.964Z,100969.80
2018-07-04T06:13:47.238Z,100960.94
2018-07-04T06:16:32.101Z,100962.42
2018-07-04T06:19:17.137Z,100962.52
2018-07-04T06:22:02.738Z,100951.20
2018-07-04T06:24:48.146Z,100959.39
2018-07-04T06:27:34.086Z,100959.52
2018-07-04T06:30:19.172Z,100953.86
2018-07-04T06:33:04.208Z,100947.33
2018-07-04T06:35:49.199Z,100954.06
2018-07-04T06:38:21.642Z,100943.84
2018-07-04T06:40:48.069Z,100946.15
2018-07-04T06:43:14.973Z,100948.97
2018-07-04T06:45:41.358Z,100945.87
2018-07-04T06:48:07.819Z,100938.73
2018-07-04T06:50:34.603Z,100940.16
2018-07-04T06:53:01.002Z,100939.89
2018-07-04T06:55:27.434Z,100948.10
2018-07-04T06:57:54.078Z,100933.86
2018-07-04T07:00:20.642Z,100937.02
2018-07-04T07:02:47.057Z,100940.80
2018-07-04T07:05:32.018Z,100933.64
2018-07-04T07:08:16.930Z,100933.38
2018-07-04T07:11:01.844Z,100937.64
2018-07-04T07:13:46.818Z,100932.35
2018-07-04T07:16:31.921Z,100937.34
2018-07-04T07:19:16.882Z,100932.41
2018-07-04T07:22:01.815Z,100932.97
2018-07-04T07:24:46.858Z,100929.85
2018-07-04T07:27:31.669Z,100926.88
2018-07-04T07:30:16.459Z,100923.77
2018-07-04T07:33:01.462Z,100928.27
2018-07-04T07:35:46.422Z,100932.64
2018-07-04T07:38:31.687Z,100935.79
2018-07-04T07:41:16.558Z,100931.46
2018-07-04T07:44:01.692Z,100923.42
2018-07-04T07:46:47.448Z,100924.98
2018-07-04T07:49:32.513Z,100924.95
2018-07-04T07:52:17.354Z,100931.14
2018-07-04T07:55:02.257Z,100935.54
2018-07-04T07:57:46.974Z,100926.87
2018-07-04T08:00:32.203Z,100930.70
2018-07-04T08:03:17.320Z,100933.19
2018-07-04T08:06:02.544Z,100940.11
2018-07-04T08:08:47.547Z,100938.71
2018-07-04T08:11:32.862Z,100930.17
2018-07-04T08:14:17.730Z,100929.36
2018-07-04T08:17:02.857Z,100928.80
2018-07-04T08:19:47.644Z,100934.30
2018-07-04T08:22:32.544Z,100931.16
2018-07-04T08:25:17.654Z,100926.81
2018-07-04T08:28:02.565Z,100926.18
2018-07-04T08:30:47.536Z,100934.01
2018-07-04T08:33:32.506Z,100936.34
2018-07-04T08:36:17.419Z,100937.69
2018-07-04T08:39:02.592Z,100936.99
2018-07-04T08:41:47.423Z,100938.63
2018-07-04T08:44:32.371Z,100938.19
2018-07-04T08:47:17.470Z,100937.23
2018-07-04T08:50:02.460Z,100939.34
2018-07-04T08:52:47.494Z,100934.16
2018-07-04T08:55:32.526Z,100935.56
2018-07-04T08:58:17.669Z,100925.30
2018-07-04T09:01:02.771Z,100926.70
2018-07-04T09:03:48.793Z,100926.77
2018-07-04T09:06:33.972Z,100924.83
2018-07-04T09:09:18.878Z,100920.31
2018-07-04T09:12:03.663Z,100916.62
2018-07-04T09:14:48.714Z,100919.56
2018-07-04T09:17:33.501Z,100921.45
2018-07-04T09:20:18.654Z,100923.03
2018-07-04T09:23:03.817Z,100921.37
2018-07-04T09:25:48.766Z,100919.27
2018-07-04T09:28:33.697Z,100920.54
2018-07-04T09:31:18.673Z,100918.95
2018-07-04T09:34:03.531Z,100925.46
2018-07-04T09:36:48.791Z,100923.50
2018-07-04T09:39:33.700Z,100932.53
2018-07-04T09:42:18.639Z,100933.73
2018-07-04T09:45:03.529Z,100933.58
2018-07-04T09:47:48.462Z,100929.36
2018-07-04T09:50:33.350Z,100935.00
2018-07-04T09:53:18.373Z,100930.78
2018-07-04T09:56:03.315Z,100935.90
2018-07-04T09:58:48.297Z,100937.78
2018-07-04T10:01:33.385Z,100940.86
2018-07-04T10:04:18.392Z,100934.27
2018-07-04T10:07:03.532Z,100930.05
2018-07-04T10:09:48.588Z,100930.60
2018-07-04T10:12:33.576Z,100928.63
2018-07-04T10:15:18.543Z,100925.60
2018-07-04T10:18:03.393Z,100921.56
2018-07-04T10:20:48.540Z,100922.61
2018-07-04T10:23:33.484Z,100922.45
2018-07-04T10:26:18.413Z,100925.53
2018-07-04T10:29:03.353Z,100932.32
2018-07-04T10:31:48.266Z,100928.74
2018-07-04T10:34:33.252Z,100932.48
2018-07-04T10:37:18.446Z,100937.84
2018-07-04T10:40:03.385Z,100949.53
2018-07-04T10:42:48.369Z,100947.77
2018-07-04T10:45:33.451Z,100951.25
2018-07-04T10:48:18.357Z,100955.41
2018-07-04T10:51:03.734Z,100962.13
2018-07-04T10:53:48.569Z,100964.58
2018-07-04T10:56:33.499Z,100972.83
2018-07-04T10:59:18.668Z,100977.13
2018-07-04T11:02:03.662Z,100976.52
2018-07-04T11:04:48.452Z,100988.61
2018-07-04T11:07:33.507Z,100981.48
2018-07-04T11:10:20.546Z,100990.31
2018-07-04T11:13:05.809Z,100989.70
2018-07-04T11:15:51.748Z,100990.06
2018-07-04T11:18:36.689Z,100986.88
2018-07-04T11:21:21.930Z,100985.05
2018-07-04T11:24:07.508Z,100982.20
2018-07-04T11:26:52.728Z,100997.19
2018-07-04T11:29:37.732Z,100983.36
2018-07-04T11:32:23.315Z,100972.97
2018-07-04T11:35:08.087Z,100981.23
2018-07-04T11:37:53.184Z,100974.61
2018-07-04T11:40:38.190Z,100970.59
2018-07-04T11:43:23.338Z,100967.05
2018-07-04T11:45:59.711Z,100971.66
2018-07-04T11:48:26.302Z,100971.84
2018-07-04T11:50:53.529Z,100970.16
2018-07-04T11:53:20.018Z,100969.48
2018-07-04T11:55:46.457Z,100967.45
2018-07-04T11:58:13.216Z,100967.75
2018-07-04T12:00:39.626Z,100969.55
2018-07-04T12:03:13.561Z,100966.88
2018-07-04T12:05:52.578Z,100962.95
2018-07-04T12:08:25.232Z,100963.56
2018-07-04T12:10:52.065Z,100976.22
2018-07-04T12:13:19.514Z,100987.52
2018-07-04T12:15:46.509Z,101000.33
2018-07-04T12:18:13.367Z,100989.33
2018-07-04T12:20:40.258Z,100989.20
2018-07-04T12:23:06.734Z,100997.45
2018-07-04T12:25:33.162Z,101000.13
2018-07-04T12:27:59.550Z,101005.30
2018-07-04T12:30:26.042Z,101009.17
2018-07-04T12:32:52.447Z,101002.80
2018-07-04T12:35:19.012Z,100999.88
2018-07-04T12:37:45.436Z,101002.58
2018-07-04T12:40:12.003Z,101003.05
2018-07-04T12:42:38.380Z,100998.00
2018-07-04T12:45:04.926Z,101004.59
2018-07-04T12:47:31.519Z,101011.58
2018-07-04T12:49:57.913Z,101017.55
2018-07-04T12:52:24.527Z,101025.83
2018-07-04T12:55:05.695Z,101025.89
2018-07-04T12:57:50.791Z,101026.83
2018-07-04T13:00:35.796Z,101037.11
2018-07-04T13:03:21.227Z,101034.50
2018-07-04T13:06:06.160Z,101037.53
2018-07-04T13:08:51.812Z,101037.42
2018-07-04T13:11:36.597Z,101038.83
2018-07-04T13:14:21.547Z,101041.93
2018-07-04T13:17:06.551Z,101040.59
2018-07-04T13:19:51.572Z,101042.14
2018-07-04T13:22:36.466Z,101049.77
2018-07-04T13:25:22.509Z,101049.20
2018-07-04T13:28:07.327Z,101044.30
2018-07-04T13:30:52.466Z,101055.14
2018-07-04T13:33:37.478Z,101054.92
2018-07-04T13:36:22.519Z,101061.42
2018-07-04T13:39:07.346Z,101070.87
2018-07-04T13:41:52.707Z,101075.05
2018-07-04T13:44:37.745Z,101079.62
2018-07-04T13:47:22.837Z,101082.45
2018-07-04T13:50:07.634Z,101073.35
2018-07-04T13:52:52.651Z,101072.87
2018-07-04T13:55:37.559Z,101073.22
2018-07-04T13:58:22.498Z,101073.57
2018-07-04T14:01:07.336Z,101074.79
2018-07-04T14:03:52.715Z,101078.58
2018-07-04T14:06:37.707Z,101078.83
2018-07-04T14:09:22.803Z,101087.28
2018-07-04T14:12:07.660Z,101089.72
2018-07-04T14:14:53.662Z,101082.58
2018-07-04T14:17:38.548Z,100988.23
2018-07-04T14:20:24.286Z,101088.45
2018-07-04T14:23:09.266Z,101085.88
2018-07-04T14:25:54.205Z,101085.52
2018-07-04T14:28:39.093Z,101079.73
2018-07-04T14:31:24.179Z,101083.80
2018-07-04T14:34:09.092Z,101083.44
2018-07-04T14:36:54.411Z,101079.39
2018-07-04T14:39:39.331Z,101080.87
2018-07-04T14:42:24.298Z,101077.79
2018-07-04T14:45:09.204Z,100962.47
2018-07-04T14:47:54.260Z,101074.39
2018-07-04T14:50:39.203Z,101083.27
2018-07-04T14:53:24.361Z,101092.86
2018-07-04T14:56:09.225Z,101100.09
2018-07-04T14:58:54.236Z,101094.47
2018-07-04T15:01:39.616Z,101094.59
2018-07-04T15:04:24.745Z,101094.73
2018-07-04T15:07:09.836Z,101099.87
2018-07-04T15:09:55.113Z,101099.00
2018-07-04T15:12:39.995Z,101098.75
2018-07-04T15:15:24.980Z,101098.66
2018-07-04T15:18:09.863Z,101096.56
2018-07-04T15:20:55.053Z,101095.13
2018-07-04T15:23:40.023Z,101090.34
2018-07-04T15:26:24.945Z,101092.69
2018-07-04T15:29:09.953Z,101090.11
2018-07-04T15:31:54.989Z,101088.16
2018-07-04T15:34:39.856Z,101086.20
2018-07-04T15:37:24.958Z,101087.55
2018-07-04T15:40:10.881Z,101084.49
2018-07-04T15:42:55.931Z,101085.11
2018-07-04T15:45:40.805Z,101085.36
2018-07-04T15:48:25.864Z,101085.01
2018-07-04T15:51:10.868Z,101089.92
2018-07-04T15:53:56.164Z,101088.45
2018-07-04T15:56:41.156Z,101085.88
2018-07-04T15:59:26.276Z,101077.05
2018-07-04T16:02:10.977Z,101074.95
2018-07-04T16:04:56.051Z,101084.17
2018-07-04T16:07:41.030Z,101095.22
2018-07-04T16:10:26.135Z,101090.08
2018-07-04T16:13:10.880Z,101094.61
2018-07-04T16:15:56.020Z,101095.73
2018-07-04T16:18:40.833Z,101089.95
2018-07-04T16:21:25.852Z,101094.86
2018-07-04T16:24:10.829Z,101091.30
2018-07-04T16:26:56.132Z,101089.11
2018-07-04T16:29:40.986Z,101097.33
2018-07-04T16:32:26.308Z,101102.85
2018-07-04T16:35:11.113Z,101101.98
2018-07-04T16:37:56.094Z,101103.81
2018-07-04T16:40:40.978Z,101099.89
2018-07-04T16:43:26.188Z,101100.41
2018-07-04T16:46:11.125Z,101101.75
2018-07-04T16:48:56.409Z,101105.67
2018-07-04T16:51:41.246Z,101104.69
2018-07-04T16:54:26.337Z,101098.80
2018-07-04T16:57:11.425Z,101103.56
2018-07-04T16:59:56.596Z,101100.12
2018-07-04T17:02:41.470Z,101097.17
2018-07-04T17:05:26.825Z,101097.31
2018-07-04T17:08:11.721Z,101086.27
2018-07-04T17:10:56.549Z,101082.92
2018-07-04T17:13:41.522Z,101086.36
2018-07-04T17:16:26.772Z,101085.75
2018-07-04T17:19:11.670Z,101087.80
2018-07-04T17:21:56.638Z,101089.02
2018-07-04T17:24:41.557Z,101081.80
2018-07-04T17:27:26.633Z,101082.02
2018-07-04T17:30:11.342Z,101087.28
2018-07-04T17:32:56.459Z,101082.89
2018-07-04T17:35:41.597Z,101081.89
2018-07-04T17:38:26.637Z,101077.36
2018-07-04T17:41:11.668Z,101081.28
2018-07-04T17:43:56.772Z,101082.50
2018-07-04T17:46:41.969Z,101073.28
2018-07-04T17:49:27.047Z,101080.16
2018-07-04T17:52:12.068Z,101075.36
2018-07-04T17:54:56.909Z,101080.50
2018-07-04T17:57:41.952Z,101077.54
2018-07-04T18:00:26.952Z,101082.94
2018-07-04T18:03:12.358Z,101081.84
2018-07-04T18:05:58.111Z,101082.20
2018-07-04T18:08:42.799Z,101088.33
2018-07-04T18:11:27.689Z,101081.45
2018-07-04T18:14:12.665Z,101084.02
2018-07-04T18:16:57.739Z,101091.98
2018-07-04T18:19:42.684Z,101080.70
2018-07-04T18:22:28.894Z,101083.75
2018-07-04T18:25:13.883Z,101084.23
2018-07-04T18:27:58.947Z,101081.92
2018-07-04T18:30:43.834Z,101076.14
2018-07-04T18:33:28.906Z,101079.70
2018-07-04T18:36:13.728Z,101068.04
2018-07-04T18:38:58.827Z,101070.26
2018-07-04T18:41:43.652Z,101074.30
2018-07-04T18:44:28.661Z,101071.73
2018-07-04T18:47:13.498Z,101068.17
2018-07-04T18:49:58.433Z,101075.44
2018-07-04T18:52:43.448Z,101068.30
2018-07-04T18:55:28.402Z,101076.27
2018-07-04T18:58:13.299Z,101072.35
2018-07-04T19:00:58.402Z,101067.95
2018-07-04T19:03:43.215Z,101071.13
2018-07-04T19:06:28.310Z,101078.88
2018-07-04T19:09:13.090Z,101074.48
2018-07-04T19:11:58.110Z,101081.23
2018-07-04T19:14:43.151Z,101084.41
2018-07-04T19:17:27.986Z,101082.58
2018-07-04T19:20:13.095Z,101085.63
2018-07-04T19:22:58.271Z,101083.55
2018-07-04T19:25:43.343Z,101076.92
2018-07-04T19:28:28.320Z,101087.24
2018-07-04T19:31:13.210Z,101084.89
2018-07-04T19:33:58.254Z,101083.67
2018-07-04T19:36:43.105Z,101083.67
2018-07-04T19:39:28.272Z,101086.38
2018-07-04T19:42:13.395Z,101085.98
2018-07-04T19:44:58.177Z,101092.73
2018-07-04T19:47:43.256Z,101100.48
2018-07-04T19:50:28.172Z,101098.53
2018-07-04T19:53:13.174Z,101101.00
2018-07-04T19:55:58.232Z,101093.12
2018-07-04T19:58:43.080Z,101097.70
2018-07-04T20:01:28.086Z,101096.25
2018-07-04T20:04:12.987Z,101099.69
2018-07-04T20:06:58.233Z,101110.38
2018-07-04T20:09:43.082Z,101107.59
2018-07-04T20:12:28.241Z,101111.50
2018-07-04T20:15:12.990Z,101115.45
2018-07-04T20:17:57.925Z,101113.97
2018-07-04T20:20:42.698Z,101120.12
2018-07-04T20:23:27.756Z,101120.26
2018-07-04T20:26:12.812Z,101118.17
2018-07-04T20:28:57.635Z,101117.42
2018-07-04T20:31:42.462Z,101117.68
2018-07-04T20:34:27.600Z,101120.15
2018-07-04T20:37:12.650Z,101121.97
2018-07-04T20:39:57.811Z,101123.58
2018-07-04T20:42:42.784Z,101118.08
2018-07-04T20:45:27.815Z,101125.42
2018-07-04T20:48:12.659Z,101127.02
2018-07-04T20:50:57.693Z,101118.44
2018-07-04T20:53:42.805Z,101112.46
2018-07-04T20:56:27.687Z,101115.53
2018-07-04T20:59:12.626Z,101114.78
2018-07-04T21:01:58.279Z,101112.22
2018-07-04T21:04:43.150Z,101110.64
2018-07-04T21:07:28.243Z,101108.19
2018-07-04T21:10:13.143Z,101110.23
2018-07-04T21:12:58.502Z,101117.69
2018-07-04T21:15:43.318Z,101116.47
2018-07-04T21:18:28.282Z,101118.45
2018-07-04T21:21:13.231Z,101123.22
2018-07-04T21:23:58.575Z,101123.59
2018-07-04T21:26:43.482Z,101117.45
2018-07-04T21:29:28.540Z,101124.31
2018-07-04T21:32:13.427Z,101114.52
2018-07-04T21:34:58.512Z,101120.86
2018-07-04T21:37:43.445Z,101122.22
2018-07-04T21:40:28.616Z,101128.59
2018-07-04T21:43:13.457Z,101131.77
2018-07-04T21:45:58.618Z,101132.28
2018-07-04T21:48:43.825Z,101134.10
2018-07-04T21:51:28.771Z,101132.76
2018-07-04T21:54:13.699Z,101139.13
2018-07-04T21:56:58.746Z,101137.04
2018-07-04T21:59:43.557Z,101143.42
2018-07-04T22:02:28.502Z,101137.64
2018-07-04T22:05:13.572Z,101143.14
2018-07-04T22:07:58.733Z,101138.00
2018-07-04T22:10:43.666Z,101143.03
2018-07-04T22:13:28.680Z,101144.50
2018-07-04T22:16:13.547Z,101140.94
2018-07-04T22:18:58.596Z,101135.55
2018-07-04T22:21:43.470Z,101126.25
2018-07-04T22:24:28.571Z,101131.87
2018-07-04T22:27:13.560Z,101127.09
2018-07-04T22:29:58.458Z,101129.78
2018-07-04T22:32:43.422Z,101128.08
2018-07-04T22:35:28.524Z,101132.59
2018-07-04T22:38:13.474Z,101127.68
2018-07-04T22:40:58.384Z,101122.30
2018-07-04T22:43:43.513Z,101125.50
2018-07-04T22:46:28.415Z,101125.50
2018-07-04T22:49:13.304Z,101118.50
2018-07-04T22:51:58.983Z,101119.01
2018-07-04T22:54:43.897Z,101122.54
2018-07-04T22:57:29.016Z,101125.34
2018-07-04T23:00:13.839Z,101125.34
2018-07-04T23:02:58.832Z,101125.86
2018-07-04T23:05:43.767Z,101125.47
2018-07-04T23:08:28.895Z,101129.15
2018-07-04T23:11:13.771Z,101126.58
2018-07-04T23:13:58.817Z,101127.17
2018-07-04T23:16:43.617Z,101129.63
2018-07-04T23:19:28.643Z,101129.27
2018-07-04T23:22:13.523Z,101131.56
2018-07-04T23:24:58.665Z,101137.08
2018-07-04T23:27:43.685Z,101137.08
2018-07-04T23:30:28.711Z,101131.80
2018-07-04T23:33:13.501Z,101134.50
2018-07-04T23:35:58.691Z,101138.18
2018-07-04T23:38:43.719Z,101142.22
2018-07-04T23:41:29.685Z,101139.28
2018-07-04T23:44:14.631Z,101141.11
2018-07-04T23:46:59.747Z,101140.72
2018-07-04T23:49:44.538Z,101144.39
2018-07-04T23:52:29.787Z,101137.03
2018-07-04T23:55:14.768Z,101136.31
2018-07-04T23:57:59.929Z,101138.61
